sensor_id;sensor_type;location;lat;lon;timestamp;P1;durP1;ratioP1;P2;durP2;ratioP2
35648;SDS011;21768;48.562;13.414;2023-01-29T00:01:49;29.50;;;13.68;;
35648;SDS011;21768;48.562;13.414;2023-01-29T00:04:15;31.83;;;13.40;;
35648;SDS011;21768;48.562;13.414;2023-01-29T00:06:40;34.50;;;14.43;;
35648;SDS011;21768;48.562;13.414;2023-01-29T00:09:06;30.15;;;13.68;;
35648;SDS011;21768;48.562;13.414;2023-01-29T00:11:31;34.47;;;13.55;;
35648;SDS011;21768;48.562;13.414;2023-01-29T00:13:57;29.95;;;12.93;;
35648;SDS011;21768;48.562;13.414;2023-01-29T00:16:22;25.92;;;11.25;;
35648;SDS011;21768;48.562;13.414;2023-01-29T00:18:48;27.50;;;11.07;;
35648;SDS011;21768;48.562;13.414;2023-01-29T00:21:15;28.80;;;12.25;;
35648;SDS011;21768;48.562;13.414;2023-01-29T00:23:41;32.08;;;12.63;;
35648;SDS011;21768;48.562;13.414;2023-01-29T00:26:07;23.60;;;12.20;;
35648;SDS011;21768;48.562;13.414;2023-01-29T00:28:33;28.38;;;12.02;;
35648;SDS011;21768;48.562;13.414;2023-01-29T00:31:05;25.50;;;11.98;;
35648;SDS011;21768;48.562;13.414;2023-01-29T00:33:31;28.88;;;12.50;;
35648;SDS011;21768;48.562;13.414;2023-01-29T00:35:57;25.65;;;11.60;;
35648;SDS011;21768;48.562;13.414;2023-01-29T00:38:22;22.13;;;11.55;;
35648;SDS011;21768;48.562;13.414;2023-01-29T00:40:47;25.92;;;11.70;;
35648;SDS011;21768;48.562;13.414;2023-01-29T00:43:31;23.23;;;11.20;;
35648;SDS011;21768;48.562;13.414;2023-01-29T00:46:15;32.88;;;12.30;;
35648;SDS011;21768;48.562;13.414;2023-01-29T00:48:40;22.23;;;10.55;;
35648;SDS011;21768;48.562;13.414;2023-01-29T00:51:06;19.58;;;9.82;;
35648;SDS011;21768;48.562;13.414;2023-01-29T00:53:31;17.92;;;8.90;;
35648;SDS011;21768;48.562;13.414;2023-01-29T00:55:56;19.33;;;9.95;;
35648;SDS011;21768;48.562;13.414;2023-01-29T00:58:22;21.77;;;9.63;;
35648;SDS011;21768;48.562;13.414;2023-01-29T01:00:58;19.77;;;9.20;;
35648;SDS011;21768;48.562;13.414;2023-01-29T01:03:25;21.65;;;9.05;;
35648;SDS011;21768;48.562;13.414;2023-01-29T01:06:01;19.13;;;9.23;;
35648;SDS011;21768;48.562;13.414;2023-01-29T01:08:30;20.70;;;10.00;;
35648;SDS011;21768;48.562;13.414;2023-01-29T01:11:14;20.48;;;9.05;;
35648;SDS011;21768;48.562;13.414;2023-01-29T01:13:40;21.52;;;9.80;;
35648;SDS011;21768;48.562;13.414;2023-01-29T01:16:13;19.67;;;8.90;;
35648;SDS011;21768;48.562;13.414;2023-01-29T01:18:40;17.35;;;8.57;;
35648;SDS011;21768;48.562;13.414;2023-01-29T01:21:06;20.05;;;9.68;;
35648;SDS011;21768;48.562;13.414;2023-01-29T01:23:32;19.42;;;9.25;;
35648;SDS011;21768;48.562;13.414;2023-01-29T01:25:58;16.98;;;8.68;;
35648;SDS011;21768;48.562;13.414;2023-01-29T01:28:24;21.52;;;9.68;;
35648;SDS011;21768;48.562;13.414;2023-01-29T01:30:49;23.15;;;10.85;;
35648;SDS011;21768;48.562;13.414;2023-01-29T01:33:15;21.17;;;10.45;;
35648;SDS011;21768;48.562;13.414;2023-01-29T01:35:41;27.25;;;11.23;;
35648;SDS011;21768;48.562;13.414;2023-01-29T01:38:06;19.50;;;10.20;;
35648;SDS011;21768;48.562;13.414;2023-01-29T01:40:32;25.30;;;10.10;;
35648;SDS011;21768;48.562;13.414;2023-01-29T01:42:58;22.15;;;10.15;;
35648;SDS011;21768;48.562;13.414;2023-01-29T01:53:08;17.58;;;8.48;;
35648;SDS011;21768;48.562;13.414;2023-01-29T01:55:37;16.45;;;8.13;;
35648;SDS011;21768;48.562;13.414;2023-01-29T01:58:29;18.30;;;8.93;;
35648;SDS011;21768;48.562;13.414;2023-01-29T02:00:57;20.42;;;9.30;;
35648;SDS011;21768;48.562;13.414;2023-01-29T02:03:22;16.98;;;8.18;;
35648;SDS011;21768;48.562;13.414;2023-01-29T02:06:09;18.23;;;8.68;;
35648;SDS011;21768;48.562;13.414;2023-01-29T02:11:40;16.65;;;7.55;;
35648;SDS011;21768;48.562;13.414;2023-01-29T02:14:05;16.02;;;7.68;;
35648;SDS011;21768;48.562;13.414;2023-01-29T02:16:33;16.92;;;8.20;;
35648;SDS011;21768;48.562;13.414;2023-01-29T02:19:00;18.23;;;7.93;;
35648;SDS011;21768;48.562;13.414;2023-01-29T02:24:35;17.45;;;8.23;;
35648;SDS011;21768;48.562;13.414;2023-01-29T02:36:04;19.00;;;8.05;;
35648;SDS011;21768;48.562;13.414;2023-01-29T02:38:40;18.77;;;7.90;;
35648;SDS011;21768;48.562;13.414;2023-01-29T02:41:21;23.27;;;9.13;;
35648;SDS011;21768;48.562;13.414;2023-01-29T02:49:21;16.90;;;8.70;;
35648;SDS011;21768;48.562;13.414;2023-01-29T02:57:04;14.57;;;8.13;;
35648;SDS011;21768;48.562;13.414;2023-01-29T02:59:40;15.75;;;8.23;;
35648;SDS011;21768;48.562;13.414;2023-01-29T03:02:12;17.80;;;8.35;;
35648;SDS011;21768;48.562;13.414;2023-01-29T03:04:43;14.45;;;7.45;;
35648;SDS011;21768;48.562;13.414;2023-01-29T03:07:16;17.02;;;8.38;;
35648;SDS011;21768;48.562;13.414;2023-01-29T03:10:05;17.42;;;7.88;;
35648;SDS011;21768;48.562;13.414;2023-01-29T03:12:40;17.50;;;7.95;;
35648;SDS011;21768;48.562;13.414;2023-01-29T03:15:07;16.33;;;8.23;;
35648;SDS011;21768;48.562;13.414;2023-01-29T03:18:21;15.05;;;8.07;;
35648;SDS011;21768;48.562;13.414;2023-01-29T03:20:34;18.05;;;8.73;;
35648;SDS011;21768;48.562;13.414;2023-01-29T03:23:13;16.95;;;8.38;;
35648;SDS011;21768;48.562;13.414;2023-01-29T03:25:54;19.05;;;8.38;;
35648;SDS011;21768;48.562;13.414;2023-01-29T03:28:42;15.70;;;8.40;;
35648;SDS011;21768;48.562;13.414;2023-01-29T03:31:29;18.60;;;8.85;;
35648;SDS011;21768;48.562;13.414;2023-01-29T03:36:52;16.75;;;7.82;;
35648;SDS011;21768;48.562;13.414;2023-01-29T03:39:22;14.68;;;8.30;;
35648;SDS011;21768;48.562;13.414;2023-01-29T03:41:57;21.15;;;8.82;;
35648;SDS011;21768;48.562;13.414;2023-01-29T03:44:37;14.65;;;8.10;;
35648;SDS011;21768;48.562;13.414;2023-01-29T03:47:17;20.00;;;8.25;;
35648;SDS011;21768;48.562;13.414;2023-01-29T03:50:04;19.23;;;8.80;;
35648;SDS011;21768;48.562;13.414;2023-01-29T03:52:43;16.83;;;8.48;;
35648;SDS011;21768;48.562;13.414;2023-01-29T03:55:16;16.98;;;8.40;;
35648;SDS011;21768;48.562;13.414;2023-01-29T03:57:59;14.98;;;8.15;;
35648;SDS011;21768;48.562;13.414;2023-01-29T04:00:38;18.20;;;8.77;;
35648;SDS011;21768;48.562;13.414;2023-01-29T04:03:39;18.45;;;7.88;;
35648;SDS011;21768;48.562;13.414;2023-01-29T04:06:14;15.10;;;7.57;;
35648;SDS011;21768;48.562;13.414;2023-01-29T04:08:52;17.48;;;8.32;;
35648;SDS011;21768;48.562;13.414;2023-01-29T04:11:22;18.92;;;8.68;;
35648;SDS011;21768;48.562;13.414;2023-01-29T04:13:48;15.20;;;7.57;;
35648;SDS011;21768;48.562;13.414;2023-01-29T04:16:36;16.80;;;8.45;;
35648;SDS011;21768;48.562;13.414;2023-01-29T04:19:05;18.17;;;8.10;;
35648;SDS011;21768;48.562;13.414;2023-01-29T04:21:30;14.60;;;7.18;;
35648;SDS011;21768;48.562;13.414;2023-01-29T04:23:56;13.98;;;7.63;;
35648;SDS011;21768;48.562;13.414;2023-01-29T04:37:16;12.45;;;7.10;;
35648;SDS011;21768;48.562;13.414;2023-01-29T04:40:02;14.23;;;7.32;;
35648;SDS011;21768;48.562;13.414;2023-01-29T04:42:43;14.40;;;7.07;;
35648;SDS011;21768;48.562;13.414;2023-01-29T04:48:33;13.73;;;7.10;;
35648;SDS011;21768;48.562;13.414;2023-01-29T04:59:04;13.48;;;7.43;;
35648;SDS011;21768;48.562;13.414;2023-01-29T05:01:34;16.95;;;7.60;;
35648;SDS011;21768;48.562;13.414;2023-01-29T05:04:02;18.08;;;7.65;;
35648;SDS011;21768;48.562;13.414;2023-01-29T05:06:38;12.43;;;6.50;;
35648;SDS011;21768;48.562;13.414;2023-01-29T05:09:05;11.75;;;6.00;;
35648;SDS011;21768;48.562;13.414;2023-01-29T05:11:33;14.75;;;7.25;;
35648;SDS011;21768;48.562;13.414;2023-01-29T05:14:01;13.32;;;6.97;;
35648;SDS011;21768;48.562;13.414;2023-01-29T05:16:30;12.48;;;6.60;;
35648;SDS011;21768;48.562;13.414;2023-01-29T05:19:13;13.73;;;6.53;;
35648;SDS011;21768;48.562;13.414;2023-01-29T05:21:39;11.98;;;6.10;;
35648;SDS011;21768;48.562;13.414;2023-01-29T05:26:38;11.90;;;6.47;;
35648;SDS011;21768;48.562;13.414;2023-01-29T05:29:23;11.13;;;5.57;;
35648;SDS011;21768;48.562;13.414;2023-01-29T05:31:48;10.32;;;5.50;;
35648;SDS011;21768;48.562;13.414;2023-01-29T05:34:14;10.40;;;5.28;;
35648;SDS011;21768;48.562;13.414;2023-01-29T05:36:39;8.07;;;4.65;;
35648;SDS011;21768;48.562;13.414;2023-01-29T05:39:05;8.98;;;4.80;;
35648;SDS011;21768;48.562;13.414;2023-01-29T05:41:30;8.50;;;4.30;;
35648;SDS011;21768;48.562;13.414;2023-01-29T05:43:55;6.10;;;3.67;;
35648;SDS011;21768;48.562;13.414;2023-01-29T05:46:21;7.70;;;3.70;;
35648;SDS011;21768;48.562;13.414;2023-01-29T05:48:46;6.00;;;3.40;;
35648;SDS011;21768;48.562;13.414;2023-01-29T05:51:11;5.97;;;3.80;;
35648;SDS011;21768;48.562;13.414;2023-01-29T05:53:37;5.65;;;3.55;;
35648;SDS011;21768;48.562;13.414;2023-01-29T05:56:02;7.90;;;3.53;;
35648;SDS011;21768;48.562;13.414;2023-01-29T05:58:29;8.40;;;3.47;;
35648;SDS011;21768;48.562;13.414;2023-01-29T06:00:56;7.22;;;3.65;;
35648;SDS011;21768;48.562;13.414;2023-01-29T06:03:21;6.95;;;3.78;;
35648;SDS011;21768;48.562;13.414;2023-01-29T06:05:46;6.72;;;3.63;;
35648;SDS011;21768;48.562;13.414;2023-01-29T06:08:12;4.55;;;2.78;;
35648;SDS011;21768;48.562;13.414;2023-01-29T06:10:37;4.88;;;2.90;;
35648;SDS011;21768;48.562;13.414;2023-01-29T06:13:03;6.85;;;3.55;;
35648;SDS011;21768;48.562;13.414;2023-01-29T06:15:28;5.75;;;3.10;;
35648;SDS011;21768;48.562;13.414;2023-01-29T06:17:54;6.32;;;3.10;;
35648;SDS011;21768;48.562;13.414;2023-01-29T06:20:20;4.57;;;2.88;;
35648;SDS011;21768;48.562;13.414;2023-01-29T06:22:46;5.05;;;3.30;;
35648;SDS011;21768;48.562;13.414;2023-01-29T06:25:11;8.38;;;3.00;;
35648;SDS011;21768;48.562;13.414;2023-01-29T06:27:37;10.35;;;2.90;;
35648;SDS011;21768;48.562;13.414;2023-01-29T06:30:03;6.53;;;3.20;;
35648;SDS011;21768;48.562;13.414;2023-01-29T06:32:29;7.93;;;3.08;;
35648;SDS011;21768;48.562;13.414;2023-01-29T06:34:54;5.75;;;3.03;;
35648;SDS011;21768;48.562;13.414;2023-01-29T06:37:20;5.00;;;2.65;;
35648;SDS011;21768;48.562;13.414;2023-01-29T06:39:45;3.47;;;2.15;;
35648;SDS011;21768;48.562;13.414;2023-01-29T06:42:10;4.20;;;2.70;;
35648;SDS011;21768;48.562;13.414;2023-01-29T06:44:36;3.78;;;2.40;;
35648;SDS011;21768;48.562;13.414;2023-01-29T06:47:01;4.35;;;2.65;;
35648;SDS011;21768;48.562;13.414;2023-01-29T06:49:27;5.07;;;2.70;;
35648;SDS011;21768;48.562;13.414;2023-01-29T06:51:52;5.90;;;2.72;;
35648;SDS011;21768;48.562;13.414;2023-01-29T06:54:17;6.85;;;2.95;;
35648;SDS011;21768;48.562;13.414;2023-01-29T06:56:42;3.80;;;2.33;;
35648;SDS011;21768;48.562;13.414;2023-01-29T06:59:09;6.85;;;2.58;;
35648;SDS011;21768;48.562;13.414;2023-01-29T07:01:37;6.07;;;2.90;;
35648;SDS011;21768;48.562;13.414;2023-01-29T07:04:05;4.53;;;2.55;;
35648;SDS011;21768;48.562;13.414;2023-01-29T07:06:30;4.97;;;3.10;;
35648;SDS011;21768;48.562;13.414;2023-01-29T07:08:56;5.85;;;2.80;;
35648;SDS011;21768;48.562;13.414;2023-01-29T07:11:22;7.30;;;3.08;;
35648;SDS011;21768;48.562;13.414;2023-01-29T07:13:47;5.63;;;2.80;;
35648;SDS011;21768;48.562;13.414;2023-01-29T07:16:13;4.68;;;2.72;;
35648;SDS011;21768;48.562;13.414;2023-01-29T07:18:38;6.80;;;2.55;;
35648;SDS011;21768;48.562;13.414;2023-01-29T07:21:04;5.53;;;2.63;;
35648;SDS011;21768;48.562;13.414;2023-01-29T07:23:31;5.25;;;2.50;;
35648;SDS011;21768;48.562;13.414;2023-01-29T07:25:59;5.38;;;2.78;;
35648;SDS011;21768;48.562;13.414;2023-01-29T07:28:26;4.88;;;2.63;;
35648;SDS011;21768;48.562;13.414;2023-01-29T07:30:55;4.53;;;2.70;;
35648;SDS011;21768;48.562;13.414;2023-01-29T07:33:21;5.40;;;2.88;;
35648;SDS011;21768;48.562;13.414;2023-01-29T07:35:47;5.38;;;2.42;;
35648;SDS011;21768;48.562;13.414;2023-01-29T07:38:12;4.47;;;2.40;;
35648;SDS011;21768;48.562;13.414;2023-01-29T07:40:37;5.93;;;2.50;;
35648;SDS011;21768;48.562;13.414;2023-01-29T07:43:04;5.47;;;2.60;;
35648;SDS011;21768;48.562;13.414;2023-01-29T07:45:32;4.85;;;2.75;;
35648;SDS011;21768;48.562;13.414;2023-01-29T07:47:58;7.53;;;3.17;;
35648;SDS011;21768;48.562;13.414;2023-01-29T07:50:24;5.93;;;3.38;;
35648;SDS011;21768;48.562;13.414;2023-01-29T07:52:52;6.78;;;3.08;;
35648;SDS011;21768;48.562;13.414;2023-01-29T07:55:19;6.18;;;3.35;;
35648;SDS011;21768;48.562;13.414;2023-01-29T07:57:45;4.13;;;2.08;;
35648;SDS011;21768;48.562;13.414;2023-01-29T08:00:11;5.88;;;3.28;;
35648;SDS011;21768;48.562;13.414;2023-01-29T08:02:38;4.68;;;2.60;;
35648;SDS011;21768;48.562;13.414;2023-01-29T08:05:03;8.35;;;3.58;;
35648;SDS011;21768;48.562;13.414;2023-01-29T08:07:29;6.20;;;3.00;;
35648;SDS011;21768;48.562;13.414;2023-01-29T08:09:54;9.10;;;3.67;;
35648;SDS011;21768;48.562;13.414;2023-01-29T08:12:20;6.00;;;3.08;;
35648;SDS011;21768;48.562;13.414;2023-01-29T08:14:45;5.03;;;2.90;;
35648;SDS011;21768;48.562;13.414;2023-01-29T08:17:11;5.50;;;3.13;;
35648;SDS011;21768;48.562;13.414;2023-01-29T08:19:37;5.97;;;3.10;;
35648;SDS011;21768;48.562;13.414;2023-01-29T08:22:03;4.35;;;2.72;;
35648;SDS011;21768;48.562;13.414;2023-01-29T08:24:29;4.97;;;2.80;;
35648;SDS011;21768;48.562;13.414;2023-01-29T08:26:54;4.75;;;2.63;;
35648;SDS011;21768;48.562;13.414;2023-01-29T08:29:19;4.65;;;2.72;;
35648;SDS011;21768;48.562;13.414;2023-01-29T08:31:45;5.22;;;2.53;;
35648;SDS011;21768;48.562;13.414;2023-01-29T08:34:10;4.38;;;2.42;;
35648;SDS011;21768;48.562;13.414;2023-01-29T08:36:35;4.95;;;2.70;;
35648;SDS011;21768;48.562;13.414;2023-01-29T08:39:01;4.75;;;2.45;;
35648;SDS011;21768;48.562;13.414;2023-01-29T08:41:27;4.72;;;2.80;;
35648;SDS011;21768;48.562;13.414;2023-01-29T08:43:52;5.43;;;2.60;;
35648;SDS011;21768;48.562;13.414;2023-01-29T08:46:17;6.97;;;3.30;;
35648;SDS011;21768;48.562;13.414;2023-01-29T08:48:43;4.95;;;2.78;;
35648;SDS011;21768;48.562;13.414;2023-01-29T08:51:08;5.63;;;2.90;;
35648;SDS011;21768;48.562;13.414;2023-01-29T08:53:34;4.10;;;2.45;;
35648;SDS011;21768;48.562;13.414;2023-01-29T08:55:59;9.45;;;4.95;;
35648;SDS011;21768;48.562;13.414;2023-01-29T08:58:24;4.93;;;2.97;;
35648;SDS011;21768;48.562;13.414;2023-01-29T09:00:50;6.22;;;3.08;;
35648;SDS011;21768;48.562;13.414;2023-01-29T09:03:15;6.38;;;3.80;;
35648;SDS011;21768;48.562;13.414;2023-01-29T09:05:40;5.75;;;3.25;;
35648;SDS011;21768;48.562;13.414;2023-01-29T09:08:06;14.20;;;6.80;;
35648;SDS011;21768;48.562;13.414;2023-01-29T09:10:33;7.88;;;3.58;;
35648;SDS011;21768;48.562;13.414;2023-01-29T09:12:59;5.40;;;3.10;;
35648;SDS011;21768;48.562;13.414;2023-01-29T09:15:24;6.70;;;4.18;;
35648;SDS011;21768;48.562;13.414;2023-01-29T09:17:50;9.80;;;5.82;;
35648;SDS011;21768;48.562;13.414;2023-01-29T09:20:16;21.73;;;11.25;;
35648;SDS011;21768;48.562;13.414;2023-01-29T09:22:43;8.35;;;4.82;;
35648;SDS011;21768;48.562;13.414;2023-01-29T09:25:09;26.23;;;12.63;;
35648;SDS011;21768;48.562;13.414;2023-01-29T09:27:35;9.80;;;4.70;;
35648;SDS011;21768;48.562;13.414;2023-01-29T09:30:03;9.10;;;4.70;;
35648;SDS011;21768;48.562;13.414;2023-01-29T09:32:29;18.90;;;8.85;;
35648;SDS011;21768;48.562;13.414;2023-01-29T09:34:55;9.25;;;4.10;;
35648;SDS011;21768;48.562;13.414;2023-01-29T09:37:21;8.18;;;4.22;;
35648;SDS011;21768;48.562;13.414;2023-01-29T09:39:47;7.93;;;3.70;;
35648;SDS011;21768;48.562;13.414;2023-01-29T09:47:28;5.75;;;3.10;;
35648;SDS011;21768;48.562;13.414;2023-01-29T09:49:58;7.30;;;3.78;;
35648;SDS011;21768;48.562;13.414;2023-01-29T09:52:40;5.43;;;3.63;;
35648;SDS011;21768;48.562;13.414;2023-01-29T09:55:24;8.55;;;4.30;;
35648;SDS011;21768;48.562;13.414;2023-01-29T09:58:04;14.90;;;5.10;;
35648;SDS011;21768;48.562;13.414;2023-01-29T10:13:57;5.45;;;3.63;;
35648;SDS011;21768;48.562;13.414;2023-01-29T10:24:34;7.55;;;4.80;;
35648;SDS011;21768;48.562;13.414;2023-01-29T10:27:19;7.88;;;3.80;;
35648;SDS011;21768;48.562;13.414;2023-01-29T10:29:46;6.75;;;4.55;;
35648;SDS011;21768;48.562;13.414;2023-01-29T10:32:19;9.45;;;4.63;;
35648;SDS011;21768;48.562;13.414;2023-01-29T10:34:48;14.77;;;7.88;;
35648;SDS011;21768;48.562;13.414;2023-01-29T10:37:18;10.68;;;5.85;;
35648;SDS011;21768;48.562;13.414;2023-01-29T10:39:49;17.35;;;7.18;;
35648;SDS011;21768;48.562;13.414;2023-01-29T10:42:16;9.45;;;5.55;;
35648;SDS011;21768;48.562;13.414;2023-01-29T10:55:57;14.90;;;6.32;;
35648;SDS011;21768;48.562;13.414;2023-01-29T11:01:29;12.63;;;6.05;;
35648;SDS011;21768;48.562;13.414;2023-01-29T11:03:56;5.25;;;3.53;;
35648;SDS011;21768;48.562;13.414;2023-01-29T11:11:38;9.50;;;5.63;;
35648;SDS011;21768;48.562;13.414;2023-01-29T11:14:13;16.92;;;6.43;;
35648;SDS011;21768;48.562;13.414;2023-01-29T11:16:51;14.88;;;6.53;;
35648;SDS011;21768;48.562;13.414;2023-01-29T11:19:17;7.32;;;3.97;;
35648;SDS011;21768;48.562;13.414;2023-01-29T11:27:52;8.02;;;4.00;;
35648;SDS011;21768;48.562;13.414;2023-01-29T11:30:24;8.68;;;4.22;;
35648;SDS011;21768;48.562;13.414;2023-01-29T11:33:06;10.90;;;4.22;;
35648;SDS011;21768;48.562;13.414;2023-01-29T11:35:32;9.88;;;6.35;;
35648;SDS011;21768;48.562;13.414;2023-01-29T11:41:05;8.57;;;5.20;;
35648;SDS011;21768;48.562;13.414;2023-01-29T11:43:32;9.32;;;5.13;;
35648;SDS011;21768;48.562;13.414;2023-01-29T11:45:59;12.10;;;4.90;;
35648;SDS011;21768;48.562;13.414;2023-01-29T11:51:36;6.60;;;4.35;;
35648;SDS011;21768;48.562;13.414;2023-01-29T11:54:04;6.93;;;4.53;;
35648;SDS011;21768;48.562;13.414;2023-01-29T11:56:31;11.52;;;6.47;;
35648;SDS011;21768;48.562;13.414;2023-01-29T11:59:03;8.02;;;4.93;;
35648;SDS011;21768;48.562;13.414;2023-01-29T12:01:31;8.40;;;5.50;;
35648;SDS011;21768;48.562;13.414;2023-01-29T12:04:00;8.30;;;4.90;;
35648;SDS011;21768;48.562;13.414;2023-01-29T12:06:33;9.95;;;4.80;;
35648;SDS011;21768;48.562;13.414;2023-01-29T12:09:08;9.15;;;4.82;;
35648;SDS011;21768;48.562;13.414;2023-01-29T12:11:39;8.30;;;4.53;;
35648;SDS011;21768;48.562;13.414;2023-01-29T12:14:05;7.22;;;4.10;;
35648;SDS011;21768;48.562;13.414;2023-01-29T12:16:58;12.65;;;4.68;;
35648;SDS011;21768;48.562;13.414;2023-01-29T12:22:13;9.15;;;5.15;;
35648;SDS011;21768;48.562;13.414;2023-01-29T12:27:30;8.90;;;4.75;;
35648;SDS011;21768;48.562;13.414;2023-01-29T12:30:10;7.78;;;5.00;;
35648;SDS011;21768;48.562;13.414;2023-01-29T12:32:55;6.68;;;4.38;;
35648;SDS011;21768;48.562;13.414;2023-01-29T12:35:28;10.70;;;5.60;;
35648;SDS011;21768;48.562;13.414;2023-01-29T12:38:05;9.68;;;5.68;;
35648;SDS011;21768;48.562;13.414;2023-01-29T12:41:03;13.25;;;4.93;;
35648;SDS011;21768;48.562;13.414;2023-01-29T12:43:45;9.45;;;5.22;;
35648;SDS011;21768;48.562;13.414;2023-01-29T12:46:26;11.38;;;6.18;;
35648;SDS011;21768;48.562;13.414;2023-01-29T12:48:54;9.93;;;5.40;;
35648;SDS011;21768;48.562;13.414;2023-01-29T12:51:28;8.57;;;4.93;;
35648;SDS011;21768;48.562;13.414;2023-01-29T12:54:01;10.32;;;5.63;;
35648;SDS011;21768;48.562;13.414;2023-01-29T12:57:06;10.85;;;5.53;;
35648;SDS011;21768;48.562;13.414;2023-01-29T13:00:00;19.00;;;8.52;;
35648;SDS011;21768;48.562;13.414;2023-01-29T13:02:47;9.63;;;5.38;;
35648;SDS011;21768;48.562;13.414;2023-01-29T13:05:25;9.63;;;5.90;;
35648;SDS011;21768;48.562;13.414;2023-01-29T13:08:02;10.60;;;5.60;;
35648;SDS011;21768;48.562;13.414;2023-01-29T13:10:31;9.65;;;5.75;;
35648;SDS011;21768;48.562;13.414;2023-01-29T13:13:03;8.40;;;5.10;;
35648;SDS011;21768;48.562;13.414;2023-01-29T13:15:37;11.18;;;6.40;;
35648;SDS011;21768;48.562;13.414;2023-01-29T13:20:42;11.20;;;6.05;;
35648;SDS011;21768;48.562;13.414;2023-01-29T13:23:14;15.93;;;6.50;;
35648;SDS011;21768;48.562;13.414;2023-01-29T13:25:44;11.10;;;6.07;;
35648;SDS011;21768;48.562;13.414;2023-01-29T13:28:23;10.05;;;6.18;;
35648;SDS011;21768;48.562;13.414;2023-01-29T13:36:24;9.88;;;6.05;;
35648;SDS011;21768;48.562;13.414;2023-01-29T13:38:58;10.45;;;6.50;;
35648;SDS011;21768;48.562;13.414;2023-01-29T13:41:42;9.68;;;6.30;;
35648;SDS011;21768;48.562;13.414;2023-01-29T13:44:17;9.30;;;5.95;;
35648;SDS011;21768;48.562;13.414;2023-01-29T13:46:50;15.82;;;6.35;;
35648;SDS011;21768;48.562;13.414;2023-01-29T13:49:33;11.90;;;6.00;;
35648;SDS011;21768;48.562;13.414;2023-01-29T13:52:43;11.45;;;6.97;;
35648;SDS011;21768;48.562;13.414;2023-01-29T13:55:04;13.88;;;7.40;;
35648;SDS011;21768;48.562;13.414;2023-01-29T14:02:45;11.07;;;6.50;;
35648;SDS011;21768;48.562;13.414;2023-01-29T14:10:21;9.98;;;6.13;;
35648;SDS011;21768;48.562;13.414;2023-01-29T14:13:33;12.15;;;6.75;;
35648;SDS011;21768;48.562;13.414;2023-01-29T14:15:45;10.35;;;5.90;;
35648;SDS011;21768;48.562;13.414;2023-01-29T14:18:27;14.55;;;5.93;;
35648;SDS011;21768;48.562;13.414;2023-01-29T14:25:53;11.13;;;6.57;;
35648;SDS011;21768;48.562;13.414;2023-01-29T14:28:20;13.15;;;6.53;;
35648;SDS011;21768;48.562;13.414;2023-01-29T14:30:48;13.48;;;5.97;;
35648;SDS011;21768;48.562;13.414;2023-01-29T14:35:50;13.20;;;5.93;;
35648;SDS011;21768;48.562;13.414;2023-01-29T14:38:17;9.65;;;5.35;;
35648;SDS011;21768;48.562;13.414;2023-01-29T14:40:44;9.82;;;5.68;;
35648;SDS011;21768;48.562;13.414;2023-01-29T14:43:20;10.63;;;5.75;;
35648;SDS011;21768;48.562;13.414;2023-01-29T14:45:46;9.65;;;5.95;;
35648;SDS011;21768;48.562;13.414;2023-01-29T14:48:18;15.77;;;5.72;;
35648;SDS011;21768;48.562;13.414;2023-01-29T14:51:04;11.23;;;6.28;;
35648;SDS011;21768;48.562;13.414;2023-01-29T14:56:36;11.05;;;6.07;;
35648;SDS011;21768;48.562;13.414;2023-01-29T14:59:18;11.07;;;5.43;;
35648;SDS011;21768;48.562;13.414;2023-01-29T15:01:51;9.98;;;5.28;;
35648;SDS011;21768;48.562;13.414;2023-01-29T15:04:20;14.55;;;6.85;;
35648;SDS011;21768;48.562;13.414;2023-01-29T15:09:30;12.60;;;6.35;;
35648;SDS011;21768;48.562;13.414;2023-01-29T15:12:07;11.45;;;5.55;;
35648;SDS011;21768;48.562;13.414;2023-01-29T15:14:35;9.65;;;5.93;;
35648;SDS011;21768;48.562;13.414;2023-01-29T15:22:00;14.77;;;7.00;;
35648;SDS011;21768;48.562;13.414;2023-01-29T15:24:27;11.63;;;6.20;;
35648;SDS011;21768;48.562;13.414;2023-01-29T15:26:52;17.17;;;6.70;;
35648;SDS011;21768;48.562;13.414;2023-01-29T15:29:27;13.55;;;6.45;;
35648;SDS011;21768;48.562;13.414;2023-01-29T15:31:54;13.02;;;6.95;;
35648;SDS011;21768;48.562;13.414;2023-01-29T15:34:21;15.70;;;6.57;;
35648;SDS011;21768;48.562;13.414;2023-01-29T15:36:47;12.75;;;7.40;;
35648;SDS011;21768;48.562;13.414;2023-01-29T15:39:15;9.40;;;5.35;;
35648;SDS011;21768;48.562;13.414;2023-01-29T15:41:44;11.38;;;6.07;;
35648;SDS011;21768;48.562;13.414;2023-01-29T15:44:14;11.60;;;6.60;;
35648;SDS011;21768;48.562;13.414;2023-01-29T15:46:48;17.60;;;7.10;;
35648;SDS011;21768;48.562;13.414;2023-01-29T15:49:23;17.92;;;7.70;;
35648;SDS011;21768;48.562;13.414;2023-01-29T15:51:54;14.80;;;7.10;;
35648;SDS011;21768;48.562;13.414;2023-01-29T15:54:22;10.82;;;6.13;;
35648;SDS011;21768;48.562;13.414;2023-01-29T15:56:51;13.85;;;7.22;;
35648;SDS011;21768;48.562;13.414;2023-01-29T15:59:18;10.95;;;6.00;;
35648;SDS011;21768;48.562;13.414;2023-01-29T16:01:47;10.90;;;6.65;;
35648;SDS011;21768;48.562;13.414;2023-01-29T16:04:14;15.55;;;8.40;;
35648;SDS011;21768;48.562;13.414;2023-01-29T16:06:43;12.32;;;6.63;;
35648;SDS011;21768;48.562;13.414;2023-01-29T16:09:15;11.60;;;6.50;;
35648;SDS011;21768;48.562;13.414;2023-01-29T16:11:47;12.98;;;6.28;;
35648;SDS011;21768;48.562;13.414;2023-01-29T16:14:14;12.93;;;6.75;;
35648;SDS011;21768;48.562;13.414;2023-01-29T16:16:44;14.90;;;6.65;;
35648;SDS011;21768;48.562;13.414;2023-01-29T16:19:33;15.13;;;7.78;;
35648;SDS011;21768;48.562;13.414;2023-01-29T16:21:59;18.83;;;8.68;;
35648;SDS011;21768;48.562;13.414;2023-01-29T16:24:26;16.52;;;7.18;;
35648;SDS011;21768;48.562;13.414;2023-01-29T16:26:57;13.75;;;7.70;;
35648;SDS011;21768;48.562;13.414;2023-01-29T16:29:31;14.65;;;8.50;;
35648;SDS011;21768;48.562;13.414;2023-01-29T16:31:58;17.30;;;6.82;;
35648;SDS011;21768;48.562;13.414;2023-01-29T16:34:39;12.18;;;6.75;;
35648;SDS011;21768;48.562;13.414;2023-01-29T16:37:23;13.85;;;7.82;;
35648;SDS011;21768;48.562;13.414;2023-01-29T16:39:54;14.35;;;7.95;;
35648;SDS011;21768;48.562;13.414;2023-01-29T16:42:27;14.82;;;8.32;;
35648;SDS011;21768;48.562;13.414;2023-01-29T16:44:55;12.98;;;7.38;;
35648;SDS011;21768;48.562;13.414;2023-01-29T16:52:53;15.40;;;7.75;;
35648;SDS011;21768;48.562;13.414;2023-01-29T16:55:21;11.68;;;6.55;;
35648;SDS011;21768;48.562;13.414;2023-01-29T16:57:52;12.98;;;6.95;;
35648;SDS011;21768;48.562;13.414;2023-01-29T17:00:26;13.13;;;7.13;;
35648;SDS011;21768;48.562;13.414;2023-01-29T17:02:53;21.15;;;11.18;;
35648;SDS011;21768;48.562;13.414;2023-01-29T17:05:27;19.85;;;9.77;;
35648;SDS011;21768;48.562;13.414;2023-01-29T17:07:56;14.27;;;8.32;;
35648;SDS011;21768;48.562;13.414;2023-01-29T17:10:23;13.88;;;7.30;;
35648;SDS011;21768;48.562;13.414;2023-01-29T17:12:54;14.75;;;7.38;;
35648;SDS011;21768;48.562;13.414;2023-01-29T17:18:22;14.43;;;7.20;;
35648;SDS011;21768;48.562;13.414;2023-01-29T17:20:49;13.85;;;7.72;;
35648;SDS011;21768;48.562;13.414;2023-01-29T17:23:17;14.15;;;7.47;;
35648;SDS011;21768;48.562;13.414;2023-01-29T17:25:42;15.70;;;7.03;;
35648;SDS011;21768;48.562;13.414;2023-01-29T17:28:10;15.07;;;6.88;;
35648;SDS011;21768;48.562;13.414;2023-01-29T17:30:37;12.02;;;6.38;;
35648;SDS011;21768;48.562;13.414;2023-01-29T17:33:12;11.70;;;6.50;;
35648;SDS011;21768;48.562;13.414;2023-01-29T17:35:43;11.02;;;6.30;;